ROMMA est une association bénévole à but non lucratif. Votre soutien est indispensable : ADHERER à ROMMA ou FAIRE un DON

Granges-lès-Beaumont - (26, Drôme)

Drôme des Collines (155 m)   Longitude: 04°58'E   Latitude: 45°03'N Station partenaire n°123
 

Détail journalier du     <<     >>

Température Precipitation Humidité Pression Vent Dir Rafale Dir. rafale Ensol.
Heure (°C) (mm) (%) (hPa) (km/h) (km/h) (min)
01:00 12.9068102310N19N0
02:00 12.307010239NNE23NNE0
03:00 12.107010239N21NNE0
04:00 11.207410236N13NNO0
05:00 10.407610234ENE11ENE0
06:00 10.007810235NNO11NNO0
07:00 10.207910241NNE8NE0
08:00 11.8075102400---0
09:00 15.006510258NNE27NNO0
10:00 17.6056102515NNE27NNE20
11:00 19.4050102520N39NNE60
12:00 21.1046102520NNO40NNE60
13:00 22.7043102419N34NE60
14:00 23.6038102418NNO35NNE60
15:00 24.3038102318NNE37NNE60
16:00 24.7035102317NNO34NNE60
17:00 24.7035102316NNO34N60
18:00 24.1038102316NNO35NNO60
19:00 22.9041102317NNO39NO60
20:00 21.2046102315N29N20
21:00 19.4052102313NNO29N0
22:00 18.1061102310NNO26NNO0
23:00 17.0067102413NNO24NO0
minuit 15.607210259NNO19NNO0

Graphique du 30-05-2019

 

Serveur OMMA